Time;durP1;ratioP1;P1;durP2;ratioP2;P2;SDS_P1;SDS_P2;PMS_P1;PMS_P2;Temp;Humidity;BMP_temperature;BMP_pressure;BME280_temperature;BME280_humidity;BME280_pressure;Samples;Min_cycle;Max_cycle;Signal;HPM_P1;HPM_P2
2022/03/30 00:01:31;;;;;;;;;;;;;;;;;;2195409;67;1242;-70
2022/03/30 00:04:04;;;;;;;;;;;;;;;;;;2195522;67;1297;-70
2022/03/30 00:06:40;;;;;;;;;;;;;;;;;;2195880;67;1088;-70
2022/03/30 00:09:13;;;;;;;;;;;;;;;;;;2196097;67;1105;-70
2022/03/30 00:11:46;;;;;;;;;;;;;;;;;;2195510;59;1865;-70
2022/03/30 00:14:20;;;;;;;;;;;;;;;;;;2195732;67;1133;-70
2022/03/30 00:16:53;;;;;;;;;;;;;;;;;;2196155;67;1368;-70
2022/03/30 00:19:26;;;;;;;;;;;;;;;;;;2195902;67;1993;-70
2022/03/30 00:22:02;;;;;;;;;;;;;;;;;;2196034;67;1305;-70
2022/03/30 00:24:35;;;;;;;;;;;;;;;;;;2195423;67;1268;-70
2022/03/30 00:27:08;;;;;;;;;;;;;;;;;;2196271;67;1101;-70
2022/03/30 00:29:41;;;;;;;;;;;;;;;;;;2195730;67;1141;-70
2022/03/30 00:32:15;;;;;;;;;;;;;;;;;;2200320;54;3710;-73
2022/03/30 00:34:48;;;;;;;;;;;;;;;;;;2200311;59;1263;-73
2022/03/30 00:37:23;;;;;;;;;;;;;;;;;;2203616;59;1230;-73
2022/03/30 00:39:57;;;;;;;;;;;;;;;;;;2206912;67;1936;-73
2022/03/30 00:42:30;;;;;;;;;;;;;;;;;;2204525;67;1296;-73
2022/03/30 00:45:09;;;;;;;;;;;;;;;;;;2207328;59;2042;-73
2022/03/30 00:47:44;;;;;;;;;;;;;;;;;;2207698;67;1152;-73
2022/03/30 00:50:18;;;;;;;;;;;;;;;;;;2209718;59;1194;-73
2022/03/30 00:52:56;;;;;;;;;;;;;;;;;;2208210;59;1590;-73
2022/03/30 00:55:29;;;;;;;;;;;;;;;;;;2208315;67;1247;-73
2022/03/30 00:58:03;;;;;;;;;;;;;;;;;;2208386;67;1981;-73
2022/03/30 01:00:36;;;;;;;;;;;;;;;;;;2208204;59;1615;-73
2022/03/30 01:03:09;;;;;;;;;;;;;;;;;;2207892;67;1234;-73
2022/03/30 01:05:43;;;;;;;;;;;;;;;;;;2204007;59;1855;-73
2022/03/30 01:08:19;;;;;;;;;;;;;;;;;;2207899;67;1262;-73
2022/03/30 01:10:52;;;;;;;;;;;;;;;;;;2208043;67;1116;-73
2022/03/30 01:13:25;;;;;;;;;;;;;;;;;;2204678;59;1615;-73
2022/03/30 01:15:59;;;;;;;;;;;;;;;;;;2208203;59;1361;-73
2022/03/30 01:18:32;;;;;;;;;;;;;;;;;;2208979;67;1934;-73
2022/03/30 01:21:08;;;;;;;;;;;;;;;;;;2208662;67;1117;-73
2022/03/30 01:23:41;;;;;;;;;;;;;;;;;;2207728;67;1281;-73
2022/03/30 01:26:14;;;;;;;;;;;;;;;;;;2207989;67;1288;-73
2022/03/30 01:28:47;;;;;;;;;;;;;;;;;;2207636;59;1581;-73
2022/03/30 01:34:10;;;;;;;;;;;;;;;;;;2204927;59;1749;-73
2022/03/30 01:36:46;;;;;;;;;;;;;;;;;;2208082;67;1224;-73
2022/03/30 01:39:19;;;;;;;;;;;;;;;;;;2204080;59;1932;-73
2022/03/30 01:41:52;;;;;;;;;;;;;;;;;;2207693;67;1256;-73
2022/03/30 01:44:25;;;;;;;;;;;;;;;;;;2208256;59;1929;-73
2022/03/30 01:46:58;;;;;;;;;;;;;;;;;;2207989;67;1194;-73
2022/03/30 01:49:32;;;;;;;;;;;;;;;;;;2204276;67;1502;-73
2022/03/30 01:52:08;;;;;;;;;;;;;;;;;;2207047;59;1786;-74
2022/03/30 01:54:42;;;;;;;;;;;;;;;;;;2207975;67;1221;-74
2022/03/30 01:57:16;;;;;;;;;;;;;;;;;;2207833;67;1255;-73
2022/03/30 01:59:49;;;;;;;;;;;;;;;;;;2207669;59;1937;-73
2022/03/30 02:02:22;;;;;;;;;;;;;;;;;;2208051;67;1264;-73
2022/03/30 02:04:55;;;;;;;;;;;;;;;;;;2207591;60;1099;-73
2022/03/30 02:07:31;;;;;;;;;;;;;;;;;;2208033;59;1368;-73
2022/03/30 02:10:05;;;;;;;;;;;;;;;;;;2207965;67;1145;-73
2022/03/30 02:12:39;;;;;;;;;;;;;;;;;;2206983;59;1724;-73
2022/03/30 02:15:13;;;;;;;;;;;;;;;;;;2207223;67;1104;-73
2022/03/30 02:17:46;;;;;;;;;;;;;;;;;;2207667;59;1123;-73
2022/03/30 02:20:19;;;;;;;;;;;;;;;;;;2207739;67;1911;-73
2022/03/30 02:22:55;;;;;;;;;;;;;;;;;;2207305;59;1255;-73
2022/03/30 02:25:28;;;;;;;;;;;;;;;;;;2207686;67;1152;-73
2022/03/30 02:28:02;;;;;;;;;;;;;;;;;;2207391;59;1140;-73
2022/03/30 02:30:35;;;;;;;;;;;;;;;;;;2207252;60;1295;-73
2022/03/30 02:33:08;;;;;;;;;;;;;;;;;;2206316;59;1663;-73
2022/03/30 02:35:41;;;;;;;;;;;;;;;;;;2206626;59;2013;-73
2022/03/30 02:38:17;;;;;;;;;;;;;;;;;;2203529;67;1248;-73
2022/03/30 02:40:51;;;;;;;;;;;;;;;;;;2207328;59;2003;-73
2022/03/30 02:43:24;;;;;;;;;;;;;;;;;;2207333;59;1909;-73
2022/03/30 02:45:57;;;;;;;;;;;;;;;;;;2207326;59;1153;-73
2022/03/30 02:48:33;;;;;;;;;;;;;;;;;;2207122;67;1157;-73
2022/03/30 02:51:07;;;;;;;;;;;;;;;;;;2204198;59;1417;-73
2022/03/30 02:53:43;;;;;;;;;;;;;;;;;;2206658;59;1665;-73
2022/03/30 02:56:16;;;;;;;;;;;;;;;;;;2207268;67;1175;-73
2022/03/30 02:58:50;;;;;;;;;;;;;;;;;;2207388;67;1941;-73
2022/03/30 03:01:23;;;;;;;;;;;;;;;;;;2203549;67;1730;-73
2022/03/30 03:03:57;;;;;;;;;;;;;;;;;;2206966;67;1061;-73
2022/03/30 03:06:30;;;;;;;;;;;;;;;;;;2207158;59;2085;-73
2022/03/30 03:09:06;;;;;;;;;;;;;;;;;;2207815;67;1172;-73
2022/03/30 03:11:40;;;;;;;;;;;;;;;;;;2208087;59;1704;-73
2022/03/30 03:14:13;;;;;;;;;;;;;;;;;;2207822;67;1174;-73
2022/03/30 03:16:46;;;;;;;;;;;;;;;;;;2207950;59;1242;-73
2022/03/30 03:19:19;;;;;;;;;;;;;;;;;;2208202;59;1939;-73
2022/03/30 03:21:52;;;;;;;;;;;;;;;;;;2207995;67;1258;-73
2022/03/30 03:24:28;;;;;;;;;;;;;;;;;;2207951;67;1322;-73
2022/03/30 03:27:02;;;;;;;;;;;;;;;;;;2208263;67;1199;-73
2022/03/30 03:29:35;;;;;;;;;;;;;;;;;;2207272;59;1509;-73
2022/03/30 03:32:09;;;;;;;;;;;;;;;;;;2204176;59;1686;-73
2022/03/30 03:34:42;;;;;;;;;;;;;;;;;;2207542;67;1200;-73
2022/03/30 03:37:15;;;;;;;;;;;;;;;;;;2207575;59;1673;-73
2022/03/30 03:39:51;;;;;;;;;;;;;;;;;;2207940;59;1924;-73
2022/03/30 03:42:24;;;;;;;;;;;;;;;;;;2208023;59;1851;-73
2022/03/30 03:44:58;;;;;;;;;;;;;;;;;;2207709;59;2050;-73
2022/03/30 03:47:31;;;;;;;;;;;;;;;;;;2207442;59;1528;-73
2022/03/30 03:50:05;;;;;;;;;;;;;;;;;;2208186;67;1327;-73
2022/03/30 03:52:39;;;;;;;;;;;;;;;;;;2207195;59;1735;-73
2022/03/30 03:55:15;;;;;;;;;;;;;;;;;;2207690;67;1208;-73
2022/03/30 03:57:48;;;;;;;;;;;;;;;;;;2207838;59;1172;-72
2022/03/30 04:00:21;;;;;;;;;;;;;;;;;;2208274;59;1937;-73
2022/03/30 04:02:54;;;;;;;;;;;;;;;;;;2208565;67;1317;-73
2022/03/30 04:05:28;;;;;;;;;;;;;;;;;;2207938;59;1170;-73
2022/03/30 04:08:01;;;;;;;;;;;;;;;;;;2208628;59;1214;-73
2022/03/30 04:10:37;;;;;;;;;;;;;;;;;;2207808;67;1267;-73
2022/03/30 04:13:10;;;;;;;;;;;;;;;;;;2203556;59;1700;-73
2022/03/30 04:15:43;;;;;;;;;;;;;;;;;;2208171;67;1181;-73
2022/03/30 04:18:16;;;;;;;;;;;;;;;;;;2208705;59;1196;-73
2022/03/30 04:20:49;;;;;;;;;;;;;;;;;;2207775;59;2030;-73
2022/03/30 04:23:22;;;;;;;;;;;;;;;;;;2204725;59;1255;-73
2022/03/30 04:25:58;;;;;;;;;;;;;;;;;;2208777;67;1148;-73
2022/03/30 04:28:34;;;;;;;;;;;;;;;;;;2207462;59;1232;-73
2022/03/30 04:31:07;;;;;;;;;;;;;;;;;;2208190;67;1096;-73
2022/03/30 04:33:40;;;;;;;;;;;;;;;;;;2207332;59;1678;-73
2022/03/30 04:36:13;;;;;;;;;;;;;;;;;;2207807;59;1089;-73
2022/03/30 04:38:47;;;;;;;;;;;;;;;;;;2207689;67;1211;-73
2022/03/30 04:41:23;;;;;;;;;;;;;;;;;;2205023;67;1953;-73
2022/03/30 04:43:56;;;;;;;;;;;;;;;;;;2208682;67;2089;-73
2022/03/30 04:46:29;;;;;;;;;;;;;;;;;;2203965;67;1224;-73
2022/03/30 04:49:02;;;;;;;;;;;;;;;;;;2208188;67;1198;-73
2022/03/30 04:51:35;;;;;;;;;;;;;;;;;;2207413;59;1548;-73
2022/03/30 04:54:09;;;;;;;;;;;;;;;;;;2207694;59;1702;-73
2022/03/30 04:56:45;;;;;;;;;;;;;;;;;;2207497;67;1078;-73
2022/03/30 04:59:18;;;;;;;;;;;;;;;;;;2207774;67;1920;-73
2022/03/30 05:01:51;;;;;;;;;;;;;;;;;;2208397;59;1655;-73
2022/03/30 05:04:24;;;;;;;;;;;;;;;;;;2207565;67;1106;-73
2022/03/30 05:06:57;;;;;;;;;;;;;;;;;;2208482;59;1259;-73
2022/03/30 05:09:30;;;;;;;;;;;;;;;;;;2208673;59;1315;-73
2022/03/30 05:12:07;;;;;;;;;;;;;;;;;;2207924;59;1621;-73
2022/03/30 05:14:40;;;;;;;;;;;;;;;;;;2207706;67;1192;-73
2022/03/30 05:17:13;;;;;;;;;;;;;;;;;;2204989;67;1504;-73
2022/03/30 05:19:47;;;;;;;;;;;;;;;;;;2207711;67;1979;-73
2022/03/30 05:22:20;;;;;;;;;;;;;;;;;;2207076;59;1152;-73
2022/03/30 05:24:53;;;;;;;;;;;;;;;;;;2207149;59;1325;-73
2022/03/30 05:27:29;;;;;;;;;;;;;;;;;;2207971;59;1140;-73
2022/03/30 05:30:02;;;;;;;;;;;;;;;;;;2208059;67;1145;-73
2022/03/30 05:32:38;;;;;;;;;;;;;;;;;;2207800;59;1687;-73
2022/03/30 05:35:11;;;;;;;;;;;;;;;;;;2207943;67;1215;-73
2022/03/30 05:37:48;;;;;;;;;;;;;;;;;;2207611;67;1130;-73
2022/03/30 05:40:21;;;;;;;;;;;;;;;;;;2207012;59;1929;-73
2022/03/30 05:42:57;;;;;;;;;;;;;;;;;;2207393;67;2224;-73
2022/03/30 05:45:30;;;;;;;;;;;;;;;;;;2207438;67;2634;-73
2022/03/30 05:48:03;;;;;;;;;;;;;;;;;;2208616;59;1090;-73
2022/03/30 05:50:39;;;;;;;;;;;;;;;;;;2207323;67;1101;-73
2022/03/30 05:53:13;;;;;;;;;;;;;;;;;;2204091;59;1791;-73
2022/03/30 05:55:47;;;;;;;;;;;;;;;;;;2207665;59;1291;-73
2022/03/30 05:58:23;;;;;;;;;;;;;;;;;;2207955;59;1105;-73
2022/03/30 06:00:56;;;;;;;;;;;;;;;;;;2207821;67;1940;-73
2022/03/30 06:03:29;;;;;;;;;;;;;;;;;;2207254;60;1163;-73
2022/03/30 06:06:02;;;;;;;;;;;;;;;;;;2207456;67;1155;-73
2022/03/30 06:08:36;;;;;;;;;;;;;;;;;;2207527;67;1089;-73
2022/03/30 06:11:10;;;;;;;;;;;;;;;;;;2207473;59;1554;-73
2022/03/30 06:13:46;;;;;;;;;;;;;;;;;;2207449;59;1804;-73
2022/03/30 06:16:20;;;;;;;;;;;;;;;;;;2207572;67;1168;-73
2022/03/30 06:18:53;;;;;;;;;;;;;;;;;;2207677;67;1234;-74
2022/03/30 06:21:26;;;;;;;;;;;;;;;;;;2207386;59;1927;-73
2022/03/30 06:24:01;;;;;;;;;;;;;;;;;;2203854;67;1451;-73
2022/03/30 06:26:34;;;;;;;;;;;;;;;;;;2207033;59;1197;-73
2022/03/30 06:29:11;;;;;;;;;;;;;;;;;;2207515;59;1281;-73
2022/03/30 06:31:44;;;;;;;;;;;;;;;;;;2207606;59;1689;-73
2022/03/30 06:34:18;;;;;;;;;;;;;;;;;;2207180;67;1106;-73
2022/03/30 06:36:51;;;;;;;;;;;;;;;;;;2207248;59;1249;-73
2022/03/30 06:39:24;;;;;;;;;;;;;;;;;;2207767;59;1248;-73
2022/03/30 06:41:58;;;;;;;;;;;;;;;;;;2208278;67;2027;-73
2022/03/30 06:44:34;;;;;;;;;;;;;;;;;;2208007;59;2175;-73
2022/03/30 06:47:07;;;;;;;;;;;;;;;;;;2209171;67;1097;-73
2022/03/30 06:49:41;;;;;;;;;;;;;;;;;;2208690;67;1081;-73
2022/03/30 06:52:14;;;;;;;;;;;;;;;;;;2209058;59;1570;-73
2022/03/30 06:54:47;;;;;;;;;;;;;;;;;;2209474;67;1128;-73
2022/03/30 06:57:20;;;;;;;;;;;;;;;;;;2208843;59;1645;-73
2022/03/30 06:59:56;;;;;;;;;;;;;;;;;;2209104;67;1299;-73
2022/03/30 07:02:30;;;;;;;;;;;;;;;;;;2208096;67;1220;-73
2022/03/30 07:05:03;;;;;;;;;;;;;;;;;;2207302;67;1151;-73
2022/03/30 07:10:27;;;;;;;;;;;;;;;;;;2208884;59;1782;-73
2022/03/30 07:13:02;;;;;;;;;;;;;;;;;;2207490;59;1864;-73
2022/03/30 07:15:38;;;;;;;;;;;;;;;;;;2208353;67;1238;-73
2022/03/30 07:18:13;;;;;;;;;;;;;;;;;;2208680;59;1096;-73
2022/03/30 07:20:46;;;;;;;;;;;;;;;;;;2208053;59;1938;-73
2022/03/30 07:23:20;;;;;;;;;;;;;;;;;;2208054;59;1310;-75
2022/03/30 07:25:53;;;;;;;;;;;;;;;;;;2208656;59;1094;-73
2022/03/30 07:28:27;;;;;;;;;;;;;;;;;;2208597;67;1109;-73
2022/03/30 07:31:03;;;;;;;;;;;;;;;;;;2208331;67;1176;-74
2022/03/30 07:33:36;;;;;;;;;;;;;;;;;;2208531;59;1767;-73
2022/03/30 07:36:09;;;;;;;;;;;;;;;;;;2208223;67;1112;-73
2022/03/30 07:38:43;;;;;;;;;;;;;;;;;;2208548;67;1227;-73
2022/03/30 07:41:16;;;;;;;;;;;;;;;;;;2207990;67;1993;-73
2022/03/30 07:43:49;;;;;;;;;;;;;;;;;;2207957;59;1986;-73
2022/03/30 07:46:25;;;;;;;;;;;;;;;;;;2209016;67;1249;-73
2022/03/30 07:48:58;;;;;;;;;;;;;;;;;;2209070;59;1271;-73
2022/03/30 07:51:32;;;;;;;;;;;;;;;;;;2207940;67;1293;-73
2022/03/30 07:54:05;;;;;;;;;;;;;;;;;;2207786;59;1598;-73
2022/03/30 07:56:38;;;;;;;;;;;;;;;;;;2208316;67;1129;-73
2022/03/30 07:59:11;;;;;;;;;;;;;;;;;;2207875;59;1531;-73
2022/03/30 08:01:47;;;;;;;;;;;;;;;;;;2207332;67;1996;-73
2022/03/30 08:04:20;;;;;;;;;;;;;;;;;;2207833;67;1172;-73
2022/03/30 08:06:54;;;;;;;;;;;;;;;;;;2207623;59;1180;-73
2022/03/30 08:09:27;;;;;;;;;;;;;;;;;;2207659;67;1141;-73
2022/03/30 08:12:00;;;;;;;;;;;;;;;;;;2207878;59;1727;-72
2022/03/30 08:14:33;;;;;;;;;;;;;;;;;;2207585;59;1245;-73
2022/03/30 08:17:09;;;;;;;;;;;;;;;;;;2207763;67;1193;-73
2022/03/30 08:19:42;;;;;;;;;;;;;;;;;;2207839;67;1249;-73
2022/03/30 08:22:28;;;;;;;;;;;;;;;;;;2207897;59;1991;-73
2022/03/30 08:25:02;;;;;;;;;;;;;;;;;;2207583;59;1672;-73
2022/03/30 08:27:36;;;;;;;;;;;;;;;;;;2208290;67;1104;-73
2022/03/30 08:30:10;;;;;;;;;;;;;;;;;;2207967;59;1193;-73
2022/03/30 08:32:45;;;;;;;;;;;;;;;;;;2207835;59;1638;-73
2022/03/30 08:35:19;;;;;;;;;;;;;;;;;;2207901;59;1217;-73
2022/03/30 08:37:52;;;;;;;;;;;;;;;;;;2204265;67;1284;-73
2022/03/30 08:40:25;;;;;;;;;;;;;;;;;;2207671;59;1668;-73
2022/03/30 08:42:58;;;;;;;;;;;;;;;;;;2207679;67;1996;-73
2022/03/30 08:45:32;;;;;;;;;;;;;;;;;;2207305;67;1110;-73
2022/03/30 08:48:08;;;;;;;;;;;;;;;;;;2207749;67;1175;-73
2022/03/30 08:50:41;;;;;;;;;;;;;;;;;;2207543;59;1228;-73
2022/03/30 08:53:15;;;;;;;;;;;;;;;;;;2206908;59;1767;-73
2022/03/30 08:55:49;;;;;;;;;;;;;;;;;;2207768;59;1695;-73
2022/03/30 08:58:22;;;;;;;;;;;;;;;;;;2207532;59;1250;-73
2022/03/30 09:00:55;;;;;;;;;;;;;;;;;;2207903;67;1937;-73
2022/03/30 09:03:31;;;;;;;;;;;;;;;;;;2207411;67;1241;-73
2022/03/30 09:06:04;;;;;;;;;;;;;;;;;;2207317;67;1102;-73
2022/03/30 09:08:43;;;;;;;;;;;;;;;;;;2207149;59;1533;-73
2022/03/30 09:11:16;;;;;;;;;;;;;;;;;;2207314;59;1255;-73
2022/03/30 09:14:01;;;;;;;;;;;;;;;;;;2207416;59;1707;-73
2022/03/30 09:16:42;;;;;;;;;;;;;;;;;;2207869;59;1164;-73
2022/03/30 09:19:19;;;;;;;;;;;;;;;;;;2207703;59;1633;-73
2022/03/30 09:21:52;;;;;;;;;;;;;;;;;;2207741;67;1924;-73
2022/03/30 09:24:27;;;;;;;;;;;;;;;;;;2207792;67;1126;-73
2022/03/30 09:27:01;;;;;;;;;;;;;;;;;;2207825;59;1657;-73
2022/03/30 09:29:36;;;;;;;;;;;;;;;;;;2206673;67;1160;-73
2022/03/30 09:32:10;;;;;;;;;;;;;;;;;;2207247;59;1592;-73
2022/03/30 09:34:51;;;;;;;;;;;;;;;;;;2207140;67;1192;-72
2022/03/30 09:37:25;;;;;;;;;;;;;;;;;;2207462;67;1365;-72
2022/03/30 09:39:58;;;;;;;;;;;;;;;;;;2207607;67;1435;-72
2022/03/30 09:42:31;;;;;;;;;;;;;;;;;;2207028;59;2038;-73
2022/03/30 09:45:05;;;;;;;;;;;;;;;;;;2207180;59;2071;-72
2022/03/30 09:47:39;;;;;;;;;;;;;;;;;;2207974;67;1223;-72
2022/03/30 09:50:15;;;;;;;;;;;;;;;;;;2207366;59;1244;-72
2022/03/30 09:52:48;;;;;;;;;;;;;;;;;;2206975;59;1739;-73
2022/03/30 09:55:26;;;;;;;;;;;;;;;;;;2207371;67;1211;-72
2022/03/30 09:58:07;;;;;;;;;;;;;;;;;;2207701;59;1271;-73
2022/03/30 10:00:41;;;;;;;;;;;;;;;;;;2207305;59;1102;-72
2022/03/30 10:03:14;;;;;;;;;;;;;;;;;;2207344;67;1925;-72
2022/03/30 10:05:50;;;;;;;;;;;;;;;;;;2207340;59;1234;-72
2022/03/30 10:08:23;;;;;;;;;;;;;;;;;;2207610;67;1266;-72
2022/03/30 10:10:57;;;;;;;;;;;;;;;;;;2209224;67;1334;-72
2022/03/30 10:13:30;;;;;;;;;;;;;;;;;;2207026;59;1634;-73
2022/03/30 10:16:03;;;;;;;;;;;;;;;;;;2209705;67;1176;-72
2022/03/30 10:18:36;;;;;;;;;;;;;;;;;;2208999;59;1148;-72
2022/03/30 10:21:22;;;;;;;;;;;;;;;;;;2208811;67;1979;-72
2022/03/30 10:24:04;;;;;;;;;;;;;;;;;;2209236;67;1221;-72
2022/03/30 10:26:44;;;;;;;;;;;;;;;;;;2208002;59;1198;-73
2022/03/30 10:29:18;;;;;;;;;;;;;;;;;;2207930;59;1595;-72
2022/03/30 10:32:09;;;;;;;;;;;;;;;;;;2208791;59;1570;-72
2022/03/30 10:34:44;;;;;;;;;;;;;;;;;;2207983;59;1084;-72
2022/03/30 10:37:25;;;;;;;;;;;;;;;;;;2208074;59;1362;-72
2022/03/30 10:40:06;;;;;;;;;;;;;;;;;;2209206;59;1161;-72
2022/03/30 10:43:00;;;;;;;;;;;;;;;;;;2207126;59;1935;-73
2022/03/30 10:45:42;;;;;;;;;;;;;;;;;;2208298;67;1227;-72
2022/03/30 10:48:17;;;;;;;;;;;;;;;;;;2207264;67;1092;-72
2022/03/30 10:50:52;;;;;;;;;;;;;;;;;;2208340;67;1106;-72
2022/03/30 10:53:42;;;;;;;;;;;;;;;;;;2207851;59;1684;-72
2022/03/30 10:56:32;;;;;;;;;;;;;;;;;;2208312;67;1114;-72
2022/03/30 10:59:18;;;;;;;;;;;;;;;;;;2208675;59;1468;-72
2022/03/30 11:01:51;;;;;;;;;;;;;;;;;;2208758;67;1939;-72
2022/03/30 11:04:27;;;;;;;;;;;;;;;;;;2207914;59;1192;-72
2022/03/30 11:07:20;;;;;;;;;;;;;;;;;;2207994;59;1695;-71
2022/03/30 11:10:08;;;;;;;;;;;;;;;;;;2208356;67;1247;-72
2022/03/30 11:12:57;;;;;;;;;;;;;;;;;;2207464;59;1598;-73
2022/03/30 11:15:33;;;;;;;;;;;;;;;;;;2203951;67;1516;-72
2022/03/30 11:18:19;;;;;;;;;;;;;;;;;;2204780;59;1905;-72
2022/03/30 11:21:11;;;;;;;;;;;;;;;;;;2208300;67;1350;-72
2022/03/30 11:23:55;;;;;;;;;;;;;;;;;;2207804;67;1945;-72
2022/03/30 11:26:54;;;;;;;;;;;;;;;;;;2208371;67;1200;-72
2022/03/30 11:29:48;;;;;;;;;;;;;;;;;;2208433;67;1104;-72
2022/03/30 11:32:41;;;;;;;;;;;;;;;;;;2207571;59;1657;-72
2022/03/30 11:35:17;;;;;;;;;;;;;;;;;;2208029;59;1190;-72
2022/03/30 11:37:51;;;;;;;;;;;;;;;;;;2208434;59;1228;-72
2022/03/30 11:40:25;;;;;;;;;;;;;;;;;;2204677;67;1289;-72
2022/03/30 11:42:59;;;;;;;;;;;;;;;;;;2207833;59;1944;-72
2022/03/30 11:45:33;;;;;;;;;;;;;;;;;;2207359;67;1071;-72
2022/03/30 11:48:10;;;;;;;;;;;;;;;;;;2208126;67;1242;-72
2022/03/30 11:50:44;;;;;;;;;;;;;;;;;;2208059;67;1081;-73
2022/03/30 11:53:21;;;;;;;;;;;;;;;;;;2207772;59;1572;-73
2022/03/30 11:55:56;;;;;;;;;;;;;;;;;;2207949;67;1319;-72
2022/03/30 11:58:30;;;;;;;;;;;;;;;;;;2208157;59;1247;-72
2022/03/30 12:01:05;;;;;;;;;;;;;;;;;;2208255;67;1187;-72
2022/03/30 12:03:42;;;;;;;;;;;;;;;;;;2208117;59;1950;-72
2022/03/30 12:06:15;;;;;;;;;;;;;;;;;;2208876;67;1093;-72
2022/03/30 12:08:49;;;;;;;;;;;;;;;;;;2208389;67;1239;-73
2022/03/30 12:11:23;;;;;;;;;;;;;;;;;;2208126;67;1187;-72
2022/03/30 12:13:57;;;;;;;;;;;;;;;;;;2208289;59;1659;-72
2022/03/30 12:16:32;;;;;;;;;;;;;;;;;;2208789;67;1179;-72
2022/03/30 12:19:08;;;;;;;;;;;;;;;;;;2208924;59;1176;-73
2022/03/30 12:21:41;;;;;;;;;;;;;;;;;;2207752;59;1934;-73
2022/03/30 12:24:21;;;;;;;;;;;;;;;;;;2208169;59;1175;-72
2022/03/30 12:26:55;;;;;;;;;;;;;;;;;;2207852;67;1180;-72
2022/03/30 12:29:32;;;;;;;;;;;;;;;;;;2207762;67;1271;-73
2022/03/30 12:32:07;;;;;;;;;;;;;;;;;;2207198;59;1542;-73
2022/03/30 12:34:46;;;;;;;;;;;;;;;;;;2207387;67;1210;-73
2022/03/30 12:37:24;;;;;;;;;;;;;;;;;;2207143;59;1197;-73
2022/03/30 12:39:57;;;;;;;;;;;;;;;;;;2207060;59;1584;-73
2022/03/30 12:42:31;;;;;;;;;;;;;;;;;;2207555;59;1946;-73
2022/03/30 12:45:05;;;;;;;;;;;;;;;;;;2207785;59;1993;-73
2022/03/30 12:47:40;;;;;;;;;;;;;;;;;;2208122;59;1262;-73
2022/03/30 12:50:18;;;;;;;;;;;;;;;;;;2207382;59;1758;-73
2022/03/30 12:52:52;;;;;;;;;;;;;;;;;;2207473;59;1715;-73
2022/03/30 12:55:28;;;;;;;;;;;;;;;;;;2208252;67;1242;-73
2022/03/30 12:58:01;;;;;;;;;;;;;;;;;;2208191;59;1137;-73
2022/03/30 13:00:37;;;;;;;;;;;;;;;;;;2207914;59;1588;-74
2022/03/30 13:03:12;;;;;;;;;;;;;;;;;;2207880;67;1976;-73
2022/03/30 13:05:50;;;;;;;;;;;;;;;;;;2208363;67;1258;-73
2022/03/30 13:08:24;;;;;;;;;;;;;;;;;;2208090;59;1239;-74
2022/03/30 13:11:00;;;;;;;;;;;;;;;;;;2208017;67;1311;-73
2022/03/30 13:13:34;;;;;;;;;;;;;;;;;;2208719;59;1598;-73
2022/03/30 13:16:09;;;;;;;;;;;;;;;;;;2208199;59;1255;-74
2022/03/30 13:18:43;;;;;;;;;;;;;;;;;;2208453;67;1171;-73
2022/03/30 13:21:18;;;;;;;;;;;;;;;;;;2208024;59;1109;-73
2022/03/30 13:23:52;;;;;;;;;;;;;;;;;;2208140;67;1943;-74
2022/03/30 13:26:28;;;;;;;;;;;;;;;;;;2208645;59;1551;-74
2022/03/30 13:29:02;;;;;;;;;;;;;;;;;;2208357;67;1152;-74
2022/03/30 13:31:38;;;;;;;;;;;;;;;;;;2208190;59;1678;-74
2022/03/30 13:34:11;;;;;;;;;;;;;;;;;;2208327;59;1187;-74
2022/03/30 13:36:48;;;;;;;;;;;;;;;;;;2207364;59;1502;-74
2022/03/30 13:39:22;;;;;;;;;;;;;;;;;;2208305;67;1248;-74
2022/03/30 13:41:55;;;;;;;;;;;;;;;;;;2207636;59;1287;-74
2022/03/30 13:44:30;;;;;;;;;;;;;;;;;;2207478;59;2000;-74
2022/03/30 13:47:03;;;;;;;;;;;;;;;;;;2207764;67;1119;-74
2022/03/30 13:49:46;;;;;;;;;;;;;;;;;;2203793;59;1587;-74
2022/03/30 13:52:24;;;;;;;;;;;;;;;;;;2207277;59;1471;-75
2022/03/30 13:54:57;;;;;;;;;;;;;;;;;;2208082;59;1319;-74
2022/03/30 13:57:30;;;;;;;;;;;;;;;;;;2208048;59;1152;-74
2022/03/30 14:00:03;;;;;;;;;;;;;;;;;;2208356;67;1161;-74
2022/03/30 14:02:37;;;;;;;;;;;;;;;;;;2207391;67;1940;-74
2022/03/30 14:05:10;;;;;;;;;;;;;;;;;;2208019;67;1205;-74
2022/03/30 14:07:46;;;;;;;;;;;;;;;;;;2207441;67;1172;-74
2022/03/30 14:10:21;;;;;;;;;;;;;;;;;;2207569;67;1129;-74
2022/03/30 14:12:54;;;;;;;;;;;;;;;;;;2207494;59;1628;-74
2022/03/30 14:15:28;;;;;;;;;;;;;;;;;;2204093;59;1279;-74
2022/03/30 14:18:01;;;;;;;;;;;;;;;;;;2207830;67;1189;-74
2022/03/30 14:20:35;;;;;;;;;;;;;;;;;;2207771;59;1244;-75
2022/03/30 14:23:12;;;;;;;;;;;;;;;;;;2208118;67;1937;-74
2022/03/30 14:25:45;;;;;;;;;;;;;;;;;;2207715;67;1109;-74
2022/03/30 14:28:19;;;;;;;;;;;;;;;;;;2207325;59;1501;-75
2022/03/30 14:30:52;;;;;;;;;;;;;;;;;;2208025;67;1325;-74
2022/03/30 14:33:25;;;;;;;;;;;;;;;;;;2207285;59;1685;-74
2022/03/30 14:35:59;;;;;;;;;;;;;;;;;;2207377;59;1288;-74
2022/03/30 14:38:35;;;;;;;;;;;;;;;;;;2207257;67;1078;-74
2022/03/30 14:41:08;;;;;;;;;;;;;;;;;;2207811;67;1265;-74
2022/03/30 14:43:42;;;;;;;;;;;;;;;;;;2207357;59;2020;-74
2022/03/30 14:46:15;;;;;;;;;;;;;;;;;;2207636;67;1251;-74
2022/03/30 14:48:50;;;;;;;;;;;;;;;;;;2207920;67;1174;-74
2022/03/30 14:51:23;;;;;;;;;;;;;;;;;;2207450;59;1249;-74
2022/03/30 14:54:00;;;;;;;;;;;;;;;;;;2207240;59;1737;-74
2022/03/30 14:56:33;;;;;;;;;;;;;;;;;;2207516;67;1292;-74
2022/03/30 14:59:06;;;;;;;;;;;;;;;;;;2206163;59;1204;-74
2022/03/30 15:01:39;;;;;;;;;;;;;;;;;;2207556;67;1295;-74
2022/03/30 15:04:14;;;;;;;;;;;;;;;;;;2207694;67;2004;-74
2022/03/30 15:06:48;;;;;;;;;;;;;;;;;;2207929;59;1173;-74
2022/03/30 15:09:24;;;;;;;;;;;;;;;;;;2208075;59;1217;-74
2022/03/30 15:11:58;;;;;;;;;;;;;;;;;;2207959;59;1744;-74
2022/03/30 15:14:31;;;;;;;;;;;;;;;;;;2207228;59;1642;-74
2022/03/30 15:17:04;;;;;;;;;;;;;;;;;;2207534;67;1290;-74
2022/03/30 15:19:38;;;;;;;;;;;;;;;;;;2208320;67;1197;-74
2022/03/30 15:22:11;;;;;;;;;;;;;;;;;;2204559;67;2192;-74
2022/03/30 15:24:47;;;;;;;;;;;;;;;;;;2207860;67;1989;-74
2022/03/30 15:27:21;;;;;;;;;;;;;;;;;;2207884;67;1217;-74
2022/03/30 15:29:54;;;;;;;;;;;;;;;;;;2208096;59;2161;-74
2022/03/30 15:32:27;;;;;;;;;;;;;;;;;;2207994;59;1716;-74
2022/03/30 15:35:01;;;;;;;;;;;;;;;;;;2208009;59;2064;-74
2022/03/30 15:37:34;;;;;;;;;;;;;;;;;;2204089;67;1091;-74
2022/03/30 15:40:11;;;;;;;;;;;;;;;;;;2208262;59;1141;-74
2022/03/30 15:42:45;;;;;;;;;;;;;;;;;;2207583;59;1882;-74
2022/03/30 15:45:18;;;;;;;;;;;;;;;;;;2207513;59;1984;-74
2022/03/30 15:47:51;;;;;;;;;;;;;;;;;;2208498;67;1293;-74
2022/03/30 15:50:24;;;;;;;;;;;;;;;;;;2208417;59;1176;-74
2022/03/30 15:52:57;;;;;;;;;;;;;;;;;;2204113;59;1738;-74
2022/03/30 15:55:33;;;;;;;;;;;;;;;;;;2203679;59;1965;-74
2022/03/30 15:58:06;;;;;;;;;;;;;;;;;;2203980;67;1228;-74
2022/03/30 16:00:40;;;;;;;;;;;;;;;;;;2204191;67;2305;-75
2022/03/30 16:03:13;;;;;;;;;;;;;;;;;;2207656;67;1992;-74
2022/03/30 16:05:48;;;;;;;;;;;;;;;;;;2207339;59;1673;-74
2022/03/30 16:14:01;;;;;;;;;;;;;;;;;;2207271;59;1775;-74
2022/03/30 16:16:36;;;;;;;;;;;;;;;;;;2207268;59;1150;-73
2022/03/30 16:19:12;;;;;;;;;;;;;;;;;;2208000;67;1205;-73
2022/03/30 16:21:47;;;;;;;;;;;;;;;;;;2207917;59;1682;-74
2022/03/30 16:24:22;;;;;;;;;;;;;;;;;;2208799;59;1925;-73
2022/03/30 16:26:59;;;;;;;;;;;;;;;;;;2208676;67;1206;-73
2022/03/30 16:29:33;;;;;;;;;;;;;;;;;;2208315;67;1284;-74
2022/03/30 16:32:11;;;;;;;;;;;;;;;;;;2208526;59;1652;-73
2022/03/30 16:34:44;;;;;;;;;;;;;;;;;;2207259;67;1084;-73
2022/03/30 16:37:17;;;;;;;;;;;;;;;;;;2207904;59;2325;-73
2022/03/30 16:39:51;;;;;;;;;;;;;;;;;;2208933;67;1220;-73
2022/03/30 16:42:27;;;;;;;;;;;;;;;;;;2208259;67;1313;-73
2022/03/30 16:45:00;;;;;;;;;;;;;;;;;;2208776;59;2164;-74
2022/03/30 16:47:33;;;;;;;;;;;;;;;;;;2209045;67;1256;-73
2022/03/30 16:50:07;;;;;;;;;;;;;;;;;;2208773;67;1214;-73
2022/03/30 16:52:44;;;;;;;;;;;;;;;;;;2207499;59;1599;-74
2022/03/30 16:55:17;;;;;;;;;;;;;;;;;;2204388;59;1959;-73
2022/03/30 16:57:53;;;;;;;;;;;;;;;;;;2208694;67;1232;-72
2022/03/30 17:00:27;;;;;;;;;;;;;;;;;;2208310;59;1198;-71
2022/03/30 17:03:00;;;;;;;;;;;;;;;;;;2208325;67;1191;-71
2022/03/30 17:05:34;;;;;;;;;;;;;;;;;;2207936;59;1974;-71
2022/03/30 17:10:56;;;;;;;;;;;;;;;;;;2208511;59;1381;-71
2022/03/30 17:13:32;;;;;;;;;;;;;;;;;;2207582;59;1979;-71
2022/03/30 17:16:05;;;;;;;;;;;;;;;;;;2208650;67;1240;-71
2022/03/30 17:18:38;;;;;;;;;;;;;;;;;;2207596;67;1290;-71
2022/03/30 17:21:12;;;;;;;;;;;;;;;;;;2208458;67;1326;-71
2022/03/30 17:23:45;;;;;;;;;;;;;;;;;;2207809;67;1938;-71
2022/03/30 17:26:18;;;;;;;;;;;;;;;;;;2209018;67;1291;-71
2022/03/30 17:28:54;;;;;;;;;;;;;;;;;;2208969;59;1185;-71
2022/03/30 17:31:27;;;;;;;;;;;;;;;;;;2208209;67;1239;-71
2022/03/30 17:34:00;;;;;;;;;;;;;;;;;;2208356;59;1956;-71
2022/03/30 17:36:34;;;;;;;;;;;;;;;;;;2207777;67;2010;-71
2022/03/30 17:39:08;;;;;;;;;;;;;;;;;;2208800;67;1337;-71
2022/03/30 17:41:41;;;;;;;;;;;;;;;;;;2208585;67;1260;-70
2022/03/30 17:44:18;;;;;;;;;;;;;;;;;;2207798;59;2263;-71
2022/03/30 17:46:51;;;;;;;;;;;;;;;;;;2207339;59;1605;-71
2022/03/30 17:52:10;;;;;;;;;;;;;;;;;;2201639;59;1746;-71
2022/03/30 17:54:43;;;;;;;;;;;;;;;;;;2207374;67;1216;-70
2022/03/30 17:57:16;;;;;;;;;;;;;;;;;;2208039;59;1328;-71
2022/03/30 17:59:52;;;;;;;;;;;;;;;;;;2207917;67;1380;-71
2022/03/30 18:02:25;;;;;;;;;;;;;;;;;;2207151;59;1297;-71
2022/03/30 18:04:59;;;;;;;;;;;;;;;;;;2207890;59;1945;-71
2022/03/30 18:07:32;;;;;;;;;;;;;;;;;;2207375;67;1113;-71
2022/03/30 18:10:06;;;;;;;;;;;;;;;;;;2207554;59;1156;-70
2022/03/30 18:12:39;;;;;;;;;;;;;;;;;;2207369;59;1606;-70